Time;durP1;ratioP1;P1;durP2;ratioP2;P2;SDS_P1;SDS_P2;PMS_P1;PMS_P2;Temp;Humidity;BMP_temperature;BMP_pressure;BME280_temperature;BME280_humidity;BME280_pressure;Samples;Min_cycle;Max_cycle;Signal;HPM_P1;HPM_P2
2022/11/06 00:01:42;;;;;;;4.73;2.30;;;;;;;;;;5022389;28;20234;-75
2022/11/06 00:04:10;;;;;;;2.53;2.33;;;;;;;;;;5007095;28;20215;-76
2022/11/06 00:06:50;;;;;;;2.47;2.13;;;;;;;;;;5030917;28;20665;-76
2022/11/06 00:09:19;;;;;;;3.03;2.33;;;;;;;;;;5022891;28;20214;-75
2022/11/06 00:11:48;;;;;;;2.73;2.00;;;;;;;;;;5022044;28;20759;-75
2022/11/06 00:14:13;;;;;;;2.30;2.13;;;;;;;;;;5006810;28;20224;-75
2022/11/06 00:16:39;;;;;;;5.57;2.30;;;;;;;;;;5019119;28;20223;-75
2022/11/06 00:19:15;;;;;;;2.47;1.93;;;;;;;;;;5013256;28;20227;-75
2022/11/06 00:21:43;;;;;;;4.23;2.20;;;;;;;;;;5021131;28;20218;-75
2022/11/06 00:24:10;;;;;;;2.07;1.87;;;;;;;;;;5002517;28;20242;-75
2022/11/06 00:26:40;;;;;;;3.23;2.17;;;;;;;;;;5012584;28;20243;-75
2022/11/06 00:29:11;;;;;;;3.47;2.50;;;;;;;;;;5028461;28;20256;-75
2022/11/06 00:31:39;;;;;;;3.17;2.27;;;;;;;;;;5018827;28;20271;-75
2022/11/06 00:34:08;;;;;;;3.33;2.07;;;;;;;;;;5011715;28;20235;-75
2022/11/06 00:36:38;;;;;;;4.10;2.07;;;;;;;;;;4997431;28;20219;-75
2022/11/06 00:39:04;;;;;;;3.20;2.03;;;;;;;;;;4987255;28;20231;-75
2022/11/06 00:41:31;;;;;;;2.60;2.13;;;;;;;;;;5024412;28;20216;-75
2022/11/06 00:44:02;;;;;;;1.83;1.70;;;;;;;;;;5014716;28;20227;-75
2022/11/06 00:46:33;;;;;;;3.43;1.90;;;;;;;;;;5021539;28;20783;-75
2022/11/06 00:49:00;;;;;;;2.50;2.20;;;;;;;;;;5011021;28;20310;-76
2022/11/06 00:51:30;;;;;;;4.73;1.83;;;;;;;;;;5022782;28;20234;-76
2022/11/06 00:53:57;;;;;;;3.87;2.10;;;;;;;;;;5024646;28;20232;-75
2022/11/06 00:56:27;;;;;;;4.13;2.20;;;;;;;;;;5007113;28;20583;-76
2022/11/06 00:58:55;;;;;;;2.50;1.83;;;;;;;;;;5028055;28;20227;-76
2022/11/06 01:01:27;;;;;;;3.73;2.00;;;;;;;;;;5010554;28;20710;-76
2022/11/06 01:03:54;;;;;;;5.07;2.10;;;;;;;;;;5029561;28;20595;-75
2022/11/06 01:06:25;;;;;;;3.40;2.50;;;;;;;;;;5028602;28;20239;-75
2022/11/06 01:08:53;;;;;;;5.77;2.20;;;;;;;;;;5019478;28;20603;-75
2022/11/06 01:11:34;;;;;;;2.57;2.23;;;;;;;;;;5007820;28;20223;-75
2022/11/06 01:14:03;;;;;;;2.50;2.30;;;;;;;;;;5027019;28;20220;-75
2022/11/06 01:16:31;;;;;;;2.10;1.90;;;;;;;;;;5013743;28;20219;-75
2022/11/06 01:19:01;;;;;;;2.30;2.10;;;;;;;;;;5012843;28;20219;-75
2022/11/06 01:21:30;;;;;;;1.97;1.83;;;;;;;;;;5026644;28;20215;-75
2022/11/06 01:24:04;;;;;;;3.70;2.13;;;;;;;;;;5040855;28;20706;-75
2022/11/06 01:26:30;;;;;;;2.70;1.90;;;;;;;;;;5015509;28;20218;-75
2022/11/06 01:28:58;;;;;;;2.20;2.00;;;;;;;;;;5031670;28;20219;-74
2022/11/06 01:31:28;;;;;;;2.73;1.97;;;;;;;;;;5024583;28;20228;-75
2022/11/06 01:33:56;;;;;;;2.63;1.90;;;;;;;;;;5015070;28;20228;-75
2022/11/06 01:36:24;;;;;;;3.23;2.20;;;;;;;;;;5029217;28;20737;-75
2022/11/06 01:38:55;;;;;;;2.93;2.20;;;;;;;;;;5009055;28;20249;-75
2022/11/06 01:41:28;;;;;;;3.10;1.80;;;;;;;;;;5010049;28;20777;-75
2022/11/06 01:44:01;;;;;;;2.20;1.90;;;;;;;;;;5031160;28;20239;-75
2022/11/06 01:46:31;;;;;;;3.37;2.23;;;;;;;;;;5008910;28;20250;-74
2022/11/06 01:49:10;;;;;;;2.60;2.00;;;;;;;;;;5031957;28;20226;-75
2022/11/06 01:51:43;;;;;;;3.00;1.77;;;;;;;;;;5013881;28;20587;-75
2022/11/06 01:54:08;;;;;;;1.80;1.70;;;;;;;;;;5025023;28;20242;-75
2022/11/06 01:56:37;;;;;;;2.80;1.90;;;;;;;;;;5032690;28;20215;-75
2022/11/06 01:59:08;;;;;;;3.63;2.20;;;;;;;;;;5015467;28;20223;-75
2022/11/06 02:01:38;;;;;;;1.83;1.73;;;;;;;;;;5006792;28;20220;-75
2022/11/06 02:04:24;;;;;;;4.43;1.70;;;;;;;;;;5037366;28;20227;-76
2022/11/06 02:06:49;;;;;;;2.73;1.57;;;;;;;;;;5043397;28;20220;-75
2022/11/06 02:09:19;;;;;;;2.00;1.80;;;;;;;;;;5004633;28;20219;-75
2022/11/06 02:12:11;;;;;;;2.87;1.90;;;;;;;;;;5010918;28;20231;-75
2022/11/06 02:14:41;;;;;;;1.90;1.80;;;;;;;;;;5032970;28;20254;-75
2022/11/06 02:17:45;;;;;;;2.13;1.90;;;;;;;;;;5022514;28;20306;-75
2022/11/06 02:20:17;;;;;;;2.83;1.80;;;;;;;;;;5029679;28;20258;-75
2022/11/06 02:22:57;;;;;;;2.37;1.73;;;;;;;;;;5029660;28;20231;-75
2022/11/06 02:26:15;;;;;;;2.27;2.00;;;;;;;;;;5028164;28;20690;-75
2022/11/06 02:28:46;;;;;;;2.73;1.87;;;;;;;;;;4985478;28;20736;-75
2022/11/06 02:31:17;;;;;;;1.90;1.53;;;;;;;;;;5021379;28;20247;-75
2022/11/06 02:33:47;;;;;;;3.27;1.90;;;;;;;;;;5030729;28;20273;-75
2022/11/06 02:36:18;;;;;;;1.90;1.47;;;;;;;;;;5005953;28;20254;-75
2022/11/06 02:38:49;;;;;;;3.33;1.93;;;;;;;;;;5007547;28;20685;-74
2022/11/06 02:41:20;;;;;;;3.60;1.80;;;;;;;;;;5008775;28;20228;-75
2022/11/06 02:43:50;;;;;;;3.37;1.90;;;;;;;;;;5030912;28;20588;-75
2022/11/06 02:46:29;;;;;;;2.53;1.73;;;;;;;;;;5013705;28;20225;-75
2022/11/06 02:49:00;;;;;;;3.17;1.90;;;;;;;;;;4997934;28;20216;-75
2022/11/06 02:51:29;;;;;;;2.53;1.33;;;;;;;;;;5013884;28;20740;-75
2022/11/06 02:53:58;;;;;;;4.47;2.00;;;;;;;;;;5012521;28;20234;-75
2022/11/06 02:56:32;;;;;;;2.17;1.73;;;;;;;;;;5023931;28;20219;-75
2022/11/06 02:59:01;;;;;;;3.10;1.70;;;;;;;;;;5020299;28;20228;-74
2022/11/06 03:01:29;;;;;;;4.43;1.50;;;;;;;;;;5011771;28;20413;-76
2022/11/06 03:04:02;;;;;;;2.27;1.77;;;;;;;;;;5006475;28;20227;-75
2022/11/06 03:06:41;;;;;;;3.07;1.73;;;;;;;;;;5013510;28;20220;-76
2022/11/06 03:09:14;;;;;;;3.80;2.00;;;;;;;;;;4997054;28;20307;-75
2022/11/06 03:11:39;;;;;;;4.27;1.90;;;;;;;;;;4990730;28;20235;-75
2022/11/06 03:14:13;;;;;;;3.47;1.80;;;;;;;;;;5043545;28;20280;-75
2022/11/06 03:16:49;;;;;;;2.37;1.60;;;;;;;;;;5022274;28;20219;-75
2022/11/06 03:19:28;;;;;;;4.53;1.60;;;;;;;;;;5028388;28;20251;-75
2022/11/06 03:21:57;;;;;;;2.20;1.83;;;;;;;;;;5017830;28;20342;-75
2022/11/06 03:24:45;;;;;;;2.00;1.80;;;;;;;;;;5021374;28;20235;-75
2022/11/06 03:27:17;;;;;;;2.13;1.57;;;;;;;;;;5011929;28;20223;-75
2022/11/06 03:29:44;;;;;;;2.90;2.10;;;;;;;;;;5014418;28;20599;-75
2022/11/06 03:32:19;;;;;;;1.80;1.70;;;;;;;;;;5029302;28;20579;-75
2022/11/06 03:34:58;;;;;;;3.43;1.80;;;;;;;;;;5041843;28;20703;-75
2022/11/06 03:37:27;;;;;;;3.93;1.97;;;;;;;;;;5012007;28;20222;-75
2022/11/06 03:39:53;;;;;;;2.03;1.80;;;;;;;;;;5023754;28;20224;-75
2022/11/06 03:42:21;;;;;;;6.90;2.00;;;;;;;;;;5024241;28;20712;-75
2022/11/06 03:44:52;;;;;;;2.70;1.50;;;;;;;;;;4996739;28;20216;-75
2022/11/06 03:47:42;;;;;;;1.60;1.50;;;;;;;;;;4988336;28;20228;-75
2022/11/06 03:50:25;;;;;;;1.73;1.60;;;;;;;;;;5025215;28;20228;-75
2022/11/06 03:53:00;;;;;;;4.23;1.87;;;;;;;;;;5014637;28;20223;-75
2022/11/06 03:55:56;;;;;;;3.47;2.10;;;;;;;;;;5022289;28;20219;-75
2022/11/06 03:58:23;;;;;;;2.23;1.40;;;;;;;;;;5024044;28;20614;-75
2022/11/06 04:00:49;;;;;;;2.63;2.00;;;;;;;;;;5013192;28;20256;-75
2022/11/06 04:03:22;;;;;;;2.83;1.63;;;;;;;;;;5027776;28;20242;-75
2022/11/06 04:05:52;;;;;;;3.67;2.10;;;;;;;;;;5014478;28;20600;-75
2022/11/06 04:14:00;;;;;;;2.27;1.97;;;;;;;;;;5015063;28;20251;-75
2022/11/06 04:16:40;;;;;;;1.53;1.40;;;;;;;;;;4999134;28;20223;-75
2022/11/06 04:19:16;;;;;;;3.50;1.83;;;;;;;;;;4997111;28;20220;-74
2022/11/06 04:22:02;;;;;;;3.13;2.03;;;;;;;;;;5022154;28;20211;-75
2022/11/06 04:27:52;;;;;;;2.30;2.03;;;;;;;;;;5039546;28;20291;-75
2022/11/06 04:30:23;;;;;;;2.20;1.63;;;;;;;;;;5016753;28;20231;-75
2022/11/06 04:33:06;;;;;;;3.47;2.10;;;;;;;;;;5009349;28;20243;-74
2022/11/06 04:36:03;;;;;;;2.60;1.77;;;;;;;;;;5020047;28;20677;-75
2022/11/06 04:38:35;;;;;;;2.77;1.87;;;;;;;;;;5013063;28;20223;-75
2022/11/06 04:41:12;;;;;;;2.97;1.97;;;;;;;;;;5041015;28;20318;-75
2022/11/06 04:43:43;;;;;;;4.03;1.90;;;;;;;;;;5037913;28;20280;-75
2022/11/06 04:46:12;;;;;;;2.50;2.00;;;;;;;;;;5011348;28;20220;-75
2022/11/06 04:48:38;;;;;;;3.73;2.17;;;;;;;;;;5005288;28;20751;-75
2022/11/06 04:51:10;;;;;;;2.00;1.87;;;;;;;;;;5014127;28;20235;-75
2022/11/06 04:53:38;;;;;;;3.63;1.70;;;;;;;;;;5001076;28;20228;-75
2022/11/06 04:56:14;;;;;;;2.13;1.60;;;;;;;;;;5014361;28;20690;-76
2022/11/06 04:58:42;;;;;;;3.00;1.87;;;;;;;;;;5016916;28;20697;-75
2022/11/06 05:01:10;;;;;;;2.53;1.83;;;;;;;;;;5017146;28;20219;-74
2022/11/06 05:03:42;;;;;;;2.63;1.83;;;;;;;;;;5024204;28;20281;-74
2022/11/06 05:06:10;;;;;;;1.87;1.77;;;;;;;;;;5014927;28;20223;-75
2022/11/06 05:08:38;;;;;;;2.73;2.00;;;;;;;;;;5013904;28;20772;-75
2022/11/06 05:11:04;;;;;;;2.30;1.83;;;;;;;;;;5032194;28;20242;-75
2022/11/06 05:13:34;;;;;;;2.10;1.80;;;;;;;;;;5022210;28;20224;-75
2022/11/06 05:16:00;;;;;;;2.73;2.10;;;;;;;;;;5017675;28;20227;-74
2022/11/06 05:18:25;;;;;;;2.23;2.03;;;;;;;;;;5022949;28;20226;-75
2022/11/06 05:23:42;;;;;;;3.03;1.97;;;;;;;;;;5028432;28;20244;-75
2022/11/06 05:26:10;;;;;;;2.07;1.80;;;;;;;;;;5026338;28;20274;-75
2022/11/06 05:28:37;;;;;;;3.63;2.00;;;;;;;;;;5017320;28;20252;-74
2022/11/06 05:31:05;;;;;;;2.60;2.10;;;;;;;;;;5015070;28;20321;-75
2022/11/06 05:33:33;;;;;;;2.53;1.90;;;;;;;;;;4998073;28;20228;-75
2022/11/06 05:36:05;;;;;;;3.77;1.90;;;;;;;;;;5032530;28;20219;-75
2022/11/06 05:38:32;;;;;;;2.23;1.77;;;;;;;;;;5011390;28;20593;-75
2022/11/06 05:41:02;;;;;;;2.20;2.00;;;;;;;;;;5012556;28;20219;-75
2022/11/06 05:43:28;;;;;;;2.67;2.47;;;;;;;;;;5010031;28;20230;-75
2022/11/06 05:45:59;;;;;;;4.37;2.80;;;;;;;;;;5014824;28;20216;-75
2022/11/06 05:48:25;;;;;;;4.13;2.10;;;;;;;;;;4997653;28;20729;-75
2022/11/06 05:50:51;;;;;;;3.90;2.70;;;;;;;;;;5008415;28;20322;-75
2022/11/06 05:53:20;;;;;;;2.43;1.97;;;;;;;;;;5014978;28;20334;-75
2022/11/06 05:55:46;;;;;;;3.57;2.17;;;;;;;;;;4999304;28;20223;-75
2022/11/06 05:58:14;;;;;;;5.20;2.77;;;;;;;;;;4997180;28;20237;-75
2022/11/06 06:00:42;;;;;;;2.43;2.07;;;;;;;;;;5039286;28;20231;-75
2022/11/06 06:03:13;;;;;;;3.37;2.30;;;;;;;;;;5000498;28;20701;-75
2022/11/06 06:05:41;;;;;;;3.67;2.53;;;;;;;;;;5024746;28;20224;-75
2022/11/06 06:08:06;;;;;;;2.27;2.07;;;;;;;;;;5009477;28;20233;-75
2022/11/06 06:10:34;;;;;;;2.93;2.73;;;;;;;;;;5022101;28;20235;-75
2022/11/06 06:13:04;;;;;;;3.43;2.23;;;;;;;;;;5015250;28;20231;-75
2022/11/06 06:15:32;;;;;;;3.10;2.40;;;;;;;;;;5010416;28;20250;-74
2022/11/06 06:18:01;;;;;;;3.73;3.03;;;;;;;;;;5015211;28;20623;-75
2022/11/06 06:20:32;;;;;;;8.30;4.73;;;;;;;;;;5031205;28;20223;-75
2022/11/06 06:23:02;;;;;;;4.67;2.20;;;;;;;;;;5007684;28;20232;-75
2022/11/06 06:25:28;;;;;;;4.50;2.03;;;;;;;;;;5019405;28;20310;-75
2022/11/06 06:27:53;;;;;;;3.27;2.33;;;;;;;;;;5021723;28;20224;-75
2022/11/06 06:30:21;;;;;;;4.17;2.67;;;;;;;;;;4997302;28;20319;-75
2022/11/06 06:32:50;;;;;;;3.03;2.40;;;;;;;;;;5006522;28;20220;-75
2022/11/06 06:35:16;;;;;;;3.00;2.50;;;;;;;;;;5044339;28;20230;-76
2022/11/06 06:37:48;;;;;;;2.37;1.97;;;;;;;;;;5009200;28;20215;-76
2022/11/06 06:40:14;;;;;;;2.10;2.00;;;;;;;;;;5030420;28;20379;-75
2022/11/06 06:42:42;;;;;;;7.03;6.33;;;;;;;;;;5033382;28;20652;-75
2022/11/06 06:45:08;;;;;;;3.40;2.40;;;;;;;;;;5029908;28;20234;-75
2022/11/06 06:47:40;;;;;;;7.13;5.97;;;;;;;;;;5006885;28;20219;-75
2022/11/06 06:50:08;;;;;;;2.40;2.07;;;;;;;;;;5012936;28;20223;-76
2022/11/06 06:52:36;;;;;;;2.60;2.10;;;;;;;;;;5029470;28;20230;-75
2022/11/06 06:55:04;;;;;;;2.50;2.00;;;;;;;;;;5026290;28;20236;-76
2022/11/06 06:57:32;;;;;;;2.17;1.97;;;;;;;;;;5024982;28;20655;-75
2022/11/06 06:59:57;;;;;;;4.03;2.03;;;;;;;;;;5026436;28;20235;-75
2022/11/06 07:02:23;;;;;;;3.23;2.10;;;;;;;;;;5003340;28;20273;-76
2022/11/06 07:04:48;;;;;;;2.33;1.87;;;;;;;;;;5014231;28;20322;-75
2022/11/06 07:07:18;;;;;;;2.13;1.97;;;;;;;;;;5014237;28;20220;-75
2022/11/06 07:09:46;;;;;;;2.50;2.10;;;;;;;;;;5024531;28;20220;-74
2022/11/06 07:12:16;;;;;;;2.73;2.17;;;;;;;;;;5026068;28;20231;-75
2022/11/06 07:14:46;;;;;;;2.90;2.00;;;;;;;;;;5027368;28;20725;-74
2022/11/06 07:17:12;;;;;;;2.93;2.10;;;;;;;;;;5028130;28;20227;-74
2022/11/06 07:19:37;;;;;;;2.50;1.83;;;;;;;;;;5027323;28;20231;-73
2022/11/06 07:22:05;;;;;;;2.67;2.00;;;;;;;;;;5039707;28;20224;-73
2022/11/06 07:24:33;;;;;;;3.00;2.03;;;;;;;;;;5014432;28;20306;-74
2022/11/06 07:27:01;;;;;;;2.90;1.97;;;;;;;;;;5018625;28;20598;-73
2022/11/06 07:29:29;;;;;;;2.70;1.97;;;;;;;;;;5025169;28;20241;-73
2022/11/06 07:31:54;;;;;;;5.50;1.93;;;;;;;;;;5014189;28;20232;-73
2022/11/06 07:34:22;;;;;;;1.93;1.77;;;;;;;;;;5029467;28;20223;-74
2022/11/06 07:36:49;;;;;;;2.53;1.73;;;;;;;;;;5012225;28;20716;-72
2022/11/06 07:39:17;;;;;;;1.80;1.57;;;;;;;;;;5014816;28;20227;-73
2022/11/06 07:41:43;;;;;;;4.80;2.10;;;;;;;;;;5010736;28;20218;-73
2022/11/06 07:44:11;;;;;;;2.07;1.57;;;;;;;;;;5025291;28;20234;-73
2022/11/06 07:46:39;;;;;;;1.90;1.70;;;;;;;;;;5012633;28;20216;-74
2022/11/06 07:49:08;;;;;;;2.27;1.80;;;;;;;;;;4995472;28;20227;-73
2022/11/06 07:51:34;;;;;;;1.70;1.60;;;;;;;;;;5012981;28;20228;-73
2022/11/06 07:54:02;;;;;;;3.57;1.80;;;;;;;;;;5021813;28;20305;-73
2022/11/06 07:56:28;;;;;;;3.20;1.83;;;;;;;;;;4991650;28;20239;-74
2022/11/06 07:58:56;;;;;;;3.97;1.80;;;;;;;;;;5020994;28;20231;-73
2022/11/06 08:01:24;;;;;;;2.27;1.57;;;;;;;;;;5020136;28;20267;-73
2022/11/06 08:03:55;;;;;;;4.87;1.80;;;;;;;;;;4997702;23;20232;-83
2022/11/06 08:06:21;;;;;;;1.60;1.47;;;;;;;;;;4981239;28;20240;-87
2022/11/06 08:09:06;;;;;;;1.93;1.60;;;;;;;;;;4947204;28;20216;-84
2022/11/06 08:11:34;;;;;;;2.07;1.70;;;;;;;;;;4966327;28;20235;-85
2022/11/06 08:14:02;;;;;;;3.03;1.90;;;;;;;;;;4943076;28;20217;-89
2022/11/06 08:16:28;;;;;;;2.87;1.50;;;;;;;;;;4961965;28;20219;-85
2022/11/06 08:19:01;;;;;;;2.67;1.60;;;;;;;;;;4994258;28;20209;-87
2022/11/06 08:21:27;;;;;;;2.43;1.70;;;;;;;;;;4975272;28;20236;-87
2022/11/06 08:23:58;;;;;;;3.77;1.80;;;;;;;;;;4993089;28;20229;-85
2022/11/06 08:26:23;;;;;;;4.13;1.90;;;;;;;;;;4958618;28;20241;-85
2022/11/06 08:28:49;;;;;;;3.07;1.50;;;;;;;;;;4976542;28;20265;-86
2022/11/06 08:31:14;;;;;;;2.23;1.73;;;;;;;;;;4968436;28;20225;-85
2022/11/06 08:33:45;;;;;;;2.83;1.80;;;;;;;;;;4961297;28;20730;-82
2022/11/06 08:36:11;;;;;;;2.63;1.60;;;;;;;;;;4984837;28;20224;-81
2022/11/06 08:38:37;;;;;;;1.70;1.50;;;;;;;;;;4994892;28;20225;-84
2022/11/06 08:41:06;;;;;;;3.80;1.40;;;;;;;;;;4974490;28;20237;-83
2022/11/06 08:43:31;;;;;;;3.37;1.70;;;;;;;;;;4964520;28;20226;-85
2022/11/06 08:46:00;;;;;;;2.33;1.73;;;;;;;;;;4961295;28;20252;-84
2022/11/06 08:48:47;;;;;;;1.70;1.53;;;;;;;;;;4972471;28;20237;-87
2022/11/06 08:51:25;;;;;;;1.50;1.40;;;;;;;;;;4960443;28;20222;-82
2022/11/06 08:53:53;;;;;;;2.30;1.47;;;;;;;;;;4961818;28;20292;-81
2022/11/06 08:56:23;;;;;;;1.73;1.30;;;;;;;;;;4974794;28;20221;-87
2022/11/06 08:59:13;;;;;;;2.50;1.47;;;;;;;;;;4962035;28;20272;-83
2022/11/06 09:01:41;;;;;;;2.40;1.63;;;;;;;;;;4955336;28;20304;-86
2022/11/06 09:04:08;;;;;;;1.73;1.50;;;;;;;;;;4976815;28;20275;-83
2022/11/06 09:06:34;;;;;;;4.33;1.53;;;;;;;;;;4983692;28;20213;-83
2022/11/06 09:09:02;;;;;;;2.37;1.57;;;;;;;;;;4947847;28;20587;-85
2022/11/06 09:11:30;;;;;;;4.33;1.90;;;;;;;;;;4958164;28;20248;-82
2022/11/06 09:13:58;;;;;;;2.47;1.43;;;;;;;;;;4962456;28;20221;-85
2022/11/06 09:16:28;;;;;;;2.93;1.53;;;;;;;;;;4972967;28;20304;-87
2022/11/06 09:18:54;;;;;;;3.43;1.70;;;;;;;;;;4943101;28;20237;-86
2022/11/06 09:21:20;;;;;;;6.20;1.60;;;;;;;;;;4972707;28;20320;-86
2022/11/06 09:23:47;;;;;;;2.10;1.57;;;;;;;;;;4962372;28;20717;-86
2022/11/06 09:26:13;;;;;;;2.57;1.37;;;;;;;;;;4981579;28;20324;-88
2022/11/06 09:28:39;;;;;;;2.73;1.37;;;;;;;;;;4950059;28;21039;-86
2022/11/06 09:31:05;;;;;;;2.13;1.80;;;;;;;;;;4961215;28;20238;-84
2022/11/06 09:33:31;;;;;;;1.73;1.40;;;;;;;;;;4948920;28;20222;-84
2022/11/06 09:36:13;;;;;;;1.80;1.53;;;;;;;;;;4991422;28;20209;-81
2022/11/06 09:38:39;;;;;;;3.63;1.50;;;;;;;;;;4994872;28;20224;-80
2022/11/06 09:41:04;;;;;;;2.67;1.67;;;;;;;;;;4991618;28;20233;-84
2022/11/06 09:43:43;;;;;;;2.13;1.63;;;;;;;;;;4973720;28;20238;-84
2022/11/06 09:46:46;;;;;;;2.33;1.70;;;;;;;;;;4994740;28;20234;-86
2022/11/06 09:49:17;;;;;;;3.33;1.80;;;;;;;;;;5003953;28;20237;-83
2022/11/06 09:52:02;;;;;;;1.77;1.57;;;;;;;;;;5005498;28;20838;-85
2022/11/06 09:54:47;;;;;;;2.30;2.10;;;;;;;;;;4979484;28;20938;-86
2022/11/06 09:59:47;;;;;;;3.43;1.77;;;;;;;;;;5014546;28;20222;-74
2022/11/06 10:05:09;;;;;;;2.67;1.70;;;;;;;;;;5018149;23;20256;-85
2022/11/06 10:07:36;;;;;;;2.33;1.60;;;;;;;;;;5030515;28;20240;-83
2022/11/06 10:10:10;;;;;;;2.97;1.53;;;;;;;;;;4980014;28;20210;-83
2022/11/06 10:13:14;;;;;;;2.40;1.57;;;;;;;;;;5008898;28;20225;-84
2022/11/06 10:15:54;;;;;;;2.87;1.67;;;;;;;;;;4996992;28;20236;-88
2022/11/06 10:18:25;;;;;;;1.93;1.60;;;;;;;;;;5095092;23;20263;-82
2022/11/06 10:20:52;;;;;;;1.53;1.37;;;;;;;;;;5029267;28;20217;-80
2022/11/06 10:23:47;;;;;;;2.27;1.60;;;;;;;;;;4986363;28;20228;-84
2022/11/06 10:26:16;;;;;;;2.73;1.50;;;;;;;;;;5016964;28;20217;-87
2022/11/06 10:29:06;;;;;;;2.90;1.80;;;;;;;;;;5000771;28;20247;-87
2022/11/06 10:31:47;;;;;;;4.30;1.90;;;;;;;;;;4993341;28;20225;-84
2022/11/06 10:34:23;;;;;;;1.53;1.43;;;;;;;;;;5013933;28;20782;-87
2022/11/06 10:36:48;;;;;;;1.70;1.30;;;;;;;;;;4988898;28;20327;-85
2022/11/06 10:39:51;;;;;;;2.50;1.83;;;;;;;;;;4987031;28;20221;-87
2022/11/06 10:42:18;;;;;;;1.50;1.30;;;;;;;;;;5013501;28;21047;-87
2022/11/06 10:45:05;;;;;;;1.63;1.50;;;;;;;;;;4985049;28;20315;-87
2022/11/06 10:47:39;;;;;;;2.07;1.53;;;;;;;;;;5003144;28;20284;-82
2022/11/06 10:50:11;;;;;;;3.73;1.60;;;;;;;;;;5015009;28;20307;-87
2022/11/06 10:53:18;;;;;;;2.40;1.53;;;;;;;;;;4996486;28;20209;-83
2022/11/06 10:56:05;;;;;;;3.53;1.60;;;;;;;;;;5025851;28;20267;-86
2022/11/06 10:58:31;;;;;;;2.43;1.60;;;;;;;;;;5004269;28;20243;-84
2022/11/06 11:01:12;;;;;;;1.37;1.27;;;;;;;;;;4972827;28;20221;-85
2022/11/06 11:03:42;;;;;;;2.20;1.37;;;;;;;;;;4979651;28;20232;-85
2022/11/06 11:06:08;;;;;;;3.10;1.40;;;;;;;;;;5002757;28;20216;-87
2022/11/06 11:08:39;;;;;;;1.97;1.43;;;;;;;;;;4981160;28;20220;-83
2022/11/06 11:11:12;;;;;;;3.37;2.20;;;;;;;;;;4999460;28;20728;-82
2022/11/06 11:13:41;;;;;;;3.27;1.70;;;;;;;;;;5027475;28;20662;-86
2022/11/06 11:16:13;;;;;;;1.63;1.33;;;;;;;;;;4981465;28;20776;-85
2022/11/06 11:18:39;;;;;;;2.00;1.67;;;;;;;;;;4982749;28;20221;-85
2022/11/06 11:21:17;;;;;;;2.17;1.60;;;;;;;;;;4991268;28;20217;-87
2022/11/06 11:26:24;;;;;;;2.00;1.53;;;;;;;;;;4964029;28;20226;-84
2022/11/06 11:28:51;;;;;;;2.43;1.40;;;;;;;;;;4926917;29;20253;-85
2022/11/06 11:31:19;;;;;;;2.03;1.50;;;;;;;;;;4941316;28;20294;-85
2022/11/06 11:34:40;;;;;;;1.33;1.23;;;;;;;;;;4959038;28;20231;-86
2022/11/06 11:37:19;;;;;;;3.47;1.52;;;;;;;;;;4966638;28;20229;-84
2022/11/06 11:39:44;;;;;;;3.17;1.50;;;;;;;;;;4935562;28;20742;-83
2022/11/06 11:42:22;;;;;;;2.63;1.50;;;;;;;;;;4947883;28;20573;-85
2022/11/06 11:45:17;;;;;;;1.67;1.58;;;;;;;;;;4951763;28;20321;-85
2022/11/06 11:47:45;;;;;;;1.70;1.40;;;;;;;;;;4968326;28;20607;-86
2022/11/06 11:50:27;;;;;;;2.63;1.80;;;;;;;;;;4955524;28;20289;-85
2022/11/06 11:52:58;;;;;;;2.03;1.53;;;;;;;;;;4935109;29;20233;-85
2022/11/06 11:55:26;;;;;;;2.03;1.60;;;;;;;;;;4959874;28;20217;-88
2022/11/06 11:57:56;;;;;;;1.60;1.50;;;;;;;;;;4936666;28;20221;-85
2022/11/06 12:00:22;;;;;;;1.53;1.40;;;;;;;;;;4937875;28;20237;-87
2022/11/06 12:03:01;;;;;;;1.73;1.63;;;;;;;;;;4937362;29;20214;-88
2022/11/06 12:05:37;;;;;;;2.07;1.40;;;;;;;;;;4936461;28;20241;-87
2022/11/06 12:08:03;;;;;;;1.87;1.53;;;;;;;;;;4943535;28;20257;-84
2022/11/06 12:10:39;;;;;;;2.23;1.53;;;;;;;;;;4921835;29;20310;-85
2022/11/06 12:13:26;;;;;;;1.73;1.60;;;;;;;;;;4939054;28;20321;-84
2022/11/06 12:16:11;;;;;;;2.20;1.40;;;;;;;;;;4959567;28;20269;-84
2022/11/06 12:18:45;;;;;;;1.97;1.50;;;;;;;;;;4962756;28;20226;-83
2022/11/06 12:21:32;;;;;;;2.67;1.60;;;;;;;;;;4938947;28;20301;-87
2022/11/06 12:24:30;;;;;;;1.60;1.50;;;;;;;;;;4953056;28;20218;-82
2022/11/06 12:27:17;;;;;;;1.52;1.42;;;;;;;;;;4934903;28;20304;-86
2022/11/06 12:29:49;;;;;;;2.77;1.43;;;;;;;;;;4955432;28;20237;-84
2022/11/06 12:32:50;;;;;;;2.50;1.60;;;;;;;;;;4949066;28;20261;-83
2022/11/06 12:36:19;;;;;;;1.73;1.33;;;;;;;;;;4895622;29;20228;-84
2022/11/06 12:38:55;;;;;;;1.53;1.37;;;;;;;;;;4883456;29;20445;-84
2022/11/06 12:41:31;;;;;;;2.27;1.40;;;;;;;;;;4881305;29;20488;-85
2022/11/06 12:43:58;;;;;;;1.75;1.55;;;;;;;;;;4929922;28;20237;-84
2022/11/06 12:46:34;;;;;;;1.73;1.30;;;;;;;;;;4945835;28;20230;-85
2022/11/06 12:49:21;;;;;;;1.73;1.20;;;;;;;;;;4956506;28;20232;-83
2022/11/06 12:52:11;;;;;;;1.55;1.30;;;;;;;;;;4960620;28;20229;-87
2022/11/06 12:54:50;;;;;;;1.58;1.27;;;;;;;;;;4956719;28;20223;-85
2022/11/06 12:57:49;;;;;;;2.25;1.48;;;;;;;;;;4964113;28;20222;-86
2022/11/06 13:00:25;;;;;;;1.33;1.20;;;;;;;;;;4960377;28;20962;-85
2022/11/06 13:03:12;;;;;;;1.70;1.33;;;;;;;;;;4951469;28;20222;-85
2022/11/06 13:05:45;;;;;;;2.63;1.67;;;;;;;;;;4966973;28;20226;-86
2022/11/06 13:08:17;;;;;;;1.90;1.70;;;;;;;;;;4969725;28;20237;-84
2022/11/06 13:11:30;;;;;;;1.73;1.20;;;;;;;;;;4968708;28;20218;-87
2022/11/06 13:14:19;;;;;;;1.43;1.33;;;;;;;;;;4944297;28;20229;-86
2022/11/06 13:16:54;;;;;;;2.30;1.47;;;;;;;;;;4957087;28;20223;-85
2022/11/06 13:19:27;;;;;;;3.50;1.20;;;;;;;;;;4955775;28;20234;-84
2022/11/06 13:22:04;;;;;;;2.67;1.50;;;;;;;;;;4949220;28;20668;-84
2022/11/06 13:24:36;;;;;;;1.90;1.60;;;;;;;;;;5020248;23;20220;-73
2022/11/06 13:27:21;;;;;;;1.95;1.15;;;;;;;;;;5019419;28;20315;-73
2022/11/06 13:32:27;;;;;;;4.27;1.40;;;;;;;;;;4981189;23;20210;-84
2022/11/06 13:34:55;;;;;;;1.75;1.27;;;;;;;;;;4968734;28;20218;-83
2022/11/06 13:37:42;;;;;;;2.40;1.40;;;;;;;;;;4964628;28;20297;-81
2022/11/06 13:40:15;;;;;;;2.10;1.37;;;;;;;;;;4976202;28;20214;-82
2022/11/06 13:42:49;;;;;;;1.33;1.20;;;;;;;;;;4993807;28;20225;-82
2022/11/06 13:45:56;;;;;;;1.53;1.30;;;;;;;;;;4962443;28;20294;-82
2022/11/06 13:48:55;;;;;;;1.50;1.17;;;;;;;;;;4986711;28;20231;-81
2022/11/06 13:51:42;;;;;;;1.50;1.23;;;;;;;;;;4975441;28;20249;-84
2022/11/06 13:54:45;;;;;;;2.97;1.50;;;;;;;;;;4988860;28;20230;-81
2022/11/06 13:57:11;;;;;;;1.67;1.50;;;;;;;;;;4975830;28;20214;-82
2022/11/06 13:59:52;;;;;;;4.40;1.33;;;;;;;;;;5011682;28;20253;-82
2022/11/06 14:02:38;;;;;;;2.57;1.87;;;;;;;;;;4955335;28;20286;-82
2022/11/06 14:05:44;;;;;;;2.30;1.60;;;;;;;;;;5007120;28;20250;-84
2022/11/06 14:08:42;;;;;;;3.43;2.43;;;;;;;;;;4974710;28;20273;-81
2022/11/06 14:11:30;;;;;;;2.67;2.03;;;;;;;;;;4987686;28;20242;-80
2022/11/06 14:16:27;;;;;;;3.20;2.90;;;;;;;;;;4920422;29;20277;-73
2022/11/06 14:19:06;;;;;;;3.40;2.30;;;;;;;;;;4928172;23;20230;-81
2022/11/06 14:21:49;;;;;;;2.40;1.70;;;;;;;;;;4973792;28;20207;-82
2022/11/06 14:24:18;;;;;;;3.13;1.60;;;;;;;;;;4949482;23;20255;-72
2022/11/06 14:26:48;;;;;;;4.50;1.77;;;;;;;;;;4955792;28;20706;-74
2022/11/06 14:29:26;;;;;;;5.80;1.87;;;;;;;;;;4909764;28;20249;-72
2022/11/06 14:31:59;;;;;;;3.63;2.10;;;;;;;;;;4941562;28;20242;-71
2022/11/06 14:34:31;;;;;;;5.20;1.60;;;;;;;;;;4973174;28;20245;-74
2022/11/06 14:37:02;;;;;;;2.67;1.90;;;;;;;;;;4960657;28;20890;-73
2022/11/06 14:39:55;;;;;;;1.67;1.57;;;;;;;;;;4960803;28;20226;-72
2022/11/06 14:42:44;;;;;;;2.97;1.30;;;;;;;;;;4960671;28;20225;-71
2022/11/06 14:45:17;;;;;;;1.53;1.37;;;;;;;;;;4958092;28;20491;-71
2022/11/06 14:50:18;;;;;;;2.90;1.50;;;;;;;;;;4953947;28;20796;-74
2022/11/06 14:55:29;;;;;;;1.63;1.50;;;;;;;;;;4946900;28;20239;-87
2022/11/06 14:57:57;;;;;;;1.70;1.47;;;;;;;;;;4940430;29;20254;-87
2022/11/06 15:01:13;;;;;;;1.80;1.50;;;;;;;;;;4905881;29;20219;-85
2022/11/06 15:04:29;;;;;;;2.03;1.43;;;;;;;;;;4896180;29;20250;-84
2022/11/06 15:07:06;;;;;;;2.83;1.80;;;;;;;;;;4936457;29;20231;-88
2022/11/06 15:09:43;;;;;;;3.17;1.50;;;;;;;;;;4918305;29;20223;-82
2022/11/06 15:12:08;;;;;;;2.03;1.20;;;;;;;;;;4905285;29;20231;-87
2022/11/06 15:14:36;;;;;;;3.47;1.93;;;;;;;;;;4904168;29;20965;-83
2022/11/06 15:17:20;;;;;;;2.23;1.43;;;;;;;;;;4929684;29;20226;-82
2022/11/06 15:19:55;;;;;;;1.57;1.40;;;;;;;;;;4894070;29;20228;-87
2022/11/06 15:22:24;;;;;;;2.17;1.60;;;;;;;;;;4914763;29;20231;-85
2022/11/06 15:25:23;;;;;;;2.27;1.70;;;;;;;;;;4900034;29;20273;-84
2022/11/06 15:27:57;;;;;;;2.27;1.57;;;;;;;;;;4913457;29;20280;-87
2022/11/06 15:30:25;;;;;;;4.23;1.43;;;;;;;;;;4918309;29;20227;-82
2022/11/06 15:32:54;;;;;;;2.37;1.60;;;;;;;;;;4898661;29;20227;-82
2022/11/06 15:35:26;;;;;;;2.23;1.50;;;;;;;;;;4902309;29;20239;-82
2022/11/06 15:37:59;;;;;;;1.30;1.20;;;;;;;;;;4920590;29;20227;-81
2022/11/06 15:40:28;;;;;;;3.47;1.40;;;;;;;;;;4889631;29;20296;-85
2022/11/06 15:42:55;;;;;;;2.33;1.50;;;;;;;;;;4938572;29;20312;-85
2022/11/06 15:45:25;;;;;;;2.47;1.43;;;;;;;;;;4899350;29;20303;-86
2022/11/06 15:47:58;;;;;;;1.93;1.50;;;;;;;;;;4908701;29;20311;-81
2022/11/06 15:50:29;;;;;;;1.60;1.30;;;;;;;;;;4909378;29;20277;-84
2022/11/06 15:53:11;;;;;;;2.23;1.60;;;;;;;;;;4910195;29;20598;-88